createdAt,value
2023-05-01T00:01:54.757Z,62.00
2023-05-01T00:04:23.669Z,61.87
2023-05-01T00:06:52.119Z,61.49
2023-05-01T00:09:20.589Z,62.71
2023-05-01T00:11:48.933Z,63.06
2023-05-01T00:14:17.369Z,64.68
2023-05-01T00:16:47.052Z,64.94
2023-05-01T00:19:19.250Z,65.33
2023-05-01T00:21:48.638Z,66.26
2023-05-01T00:24:17.420Z,67.15
2023-05-01T00:26:46.489Z,67.72
2023-05-01T00:29:15.004Z,68.67
2023-05-01T00:31:43.903Z,69.00
2023-05-01T00:34:12.355Z,69.03
2023-05-01T00:36:40.789Z,68.99
2023-05-01T00:39:09.321Z,70.73
2023-05-01T00:41:37.800Z,70.59
2023-05-01T00:44:06.491Z,72.67
2023-05-01T00:46:35.378Z,73.34
2023-05-01T00:49:04.572Z,73.90
2023-05-01T00:51:34.055Z,74.65
2023-05-01T00:54:03.092Z,75.55
2023-05-01T00:56:31.559Z,75.00
2023-05-01T00:58:59.991Z,76.68
2023-05-01T01:01:29.093Z,77.10
2023-05-01T01:03:57.547Z,77.03
2023-05-01T01:06:37.828Z,76.90
2023-05-01T01:09:40.221Z,77.80
2023-05-01T01:12:14.387Z,78.75
2023-05-01T01:14:45.673Z,78.92
2023-05-01T01:17:17.243Z,80.41
2023-05-01T01:20:11.579Z,81.00
2023-05-01T01:22:47.539Z,82.05
2023-05-01T01:25:34.788Z,82.26
2023-05-01T01:28:15.004Z,83.81
2023-05-01T01:30:43.913Z,83.47
2023-05-01T01:33:18.273Z,83.62
2023-05-01T01:35:57.920Z,83.28
2023-05-01T01:38:50.060Z,83.67
2023-05-01T01:41:24.237Z,83.26
2023-05-01T01:44:00.480Z,83.34
2023-05-01T01:46:29.187Z,83.36
2023-05-01T01:48:58.122Z,83.78
2023-05-01T01:51:27.580Z,83.19
2023-05-01T01:53:58.872Z,82.93
2023-05-01T01:56:28.797Z,82.39
2023-05-01T01:58:58.519Z,82.03
2023-05-01T02:01:27.891Z,81.69
2023-05-01T02:03:57.500Z,80.11
2023-05-01T02:06:27.221Z,80.17
2023-05-01T02:08:57.367Z,80.04
2023-05-01T02:11:26.146Z,79.63
2023-05-01T02:13:55.618Z,78.75
2023-05-01T02:16:25.707Z,78.66
2023-05-01T02:18:56.265Z,78.20
2023-05-01T02:21:26.693Z,77.71
2023-05-01T02:23:55.323Z,77.31
2023-05-01T02:26:26.707Z,76.67
2023-05-01T02:28:55.545Z,76.17
2023-05-01T02:31:24.413Z,76.14
2023-05-01T02:33:52.929Z,75.19
2023-05-01T02:36:21.461Z,74.75
2023-05-01T02:38:51.396Z,74.07
2023-05-01T02:41:24.985Z,73.30
2023-05-01T02:43:57.094Z,72.74
2023-05-01T02:46:27.571Z,72.08
2023-05-01T02:48:57.745Z,71.65
2023-05-01T02:51:26.877Z,71.28
2023-05-01T02:53:55.836Z,71.03
2023-05-01T02:56:27.058Z,70.70
2023-05-01T02:58:55.943Z,70.55
2023-05-01T03:01:24.500Z,70.45
2023-05-01T03:03:52.973Z,69.80
2023-05-01T03:06:21.442Z,69.47
2023-05-01T03:08:49.848Z,69.14
2023-05-01T03:11:18.240Z,68.67
2023-05-01T03:13:47.842Z,68.31
2023-05-01T03:16:16.364Z,68.10
2023-05-01T03:18:44.811Z,67.88
2023-05-01T03:21:13.317Z,67.43
2023-05-01T03:23:41.971Z,67.35
2023-05-01T03:26:10.430Z,67.23
2023-05-01T03:28:39.018Z,67.33
2023-05-01T03:31:07.864Z,67.07
2023-05-01T03:33:36.267Z,66.84
2023-05-01T03:36:05.696Z,66.57
2023-05-01T03:38:34.773Z,66.70
2023-05-01T03:41:12.166Z,66.43
2023-05-01T03:43:59.116Z,66.04
2023-05-01T03:46:36.309Z,65.74
2023-05-01T03:49:07.848Z,65.55
2023-05-01T03:51:41.964Z,65.19
2023-05-01T03:54:10.316Z,64.95
2023-05-01T03:56:52.157Z,64.61
2023-05-01T03:59:21.243Z,64.24
2023-05-01T04:01:49.848Z,64.23
2023-05-01T04:04:18.754Z,63.97
2023-05-01T04:06:51.905Z,63.95
2023-05-01T04:09:20.703Z,63.89
2023-05-01T04:11:49.045Z,63.84
2023-05-01T04:14:17.976Z,63.89
2023-05-01T04:16:46.864Z,63.83
2023-05-01T04:19:15.350Z,63.43
2023-05-01T04:21:45.350Z,63.34
2023-05-01T04:24:13.731Z,63.10
2023-05-01T04:26:42.940Z,63.36
2023-05-01T04:29:11.612Z,63.35
2023-05-01T04:31:41.919Z,63.52
2023-05-01T04:34:10.782Z,63.76
2023-05-01T04:36:39.840Z,63.65
2023-05-01T04:39:08.318Z,63.81
2023-05-01T04:41:37.600Z,63.83
2023-05-01T04:44:06.584Z,63.48
2023-05-01T04:46:35.014Z,63.24
2023-05-01T04:49:03.595Z,63.34
2023-05-01T04:51:31.959Z,63.26
2023-05-01T04:54:00.694Z,63.42
2023-05-01T04:56:29.512Z,63.51
2023-05-01T04:59:01.734Z,63.44
2023-05-01T05:01:31.345Z,63.46
2023-05-01T05:04:00.192Z,63.27
2023-05-01T05:06:31.652Z,62.93
2023-05-01T05:09:00.475Z,62.83
2023-05-01T05:11:29.084Z,62.35
2023-05-01T05:14:04.233Z,62.32
2023-05-01T05:16:32.671Z,61.96
2023-05-01T05:19:01.414Z,61.90
2023-05-01T05:21:31.895Z,61.53
2023-05-01T05:24:00.672Z,61.12
2023-05-01T05:26:29.321Z,61.38
2023-05-01T05:28:59.638Z,60.09
2023-05-01T05:31:28.179Z,59.04
2023-05-01T05:33:56.771Z,58.95
2023-05-01T05:36:25.335Z,58.10
2023-05-01T05:38:54.228Z,57.80
2023-05-01T05:41:23.106Z,58.18
2023-05-01T05:43:56.403Z,58.85
2023-05-01T05:46:24.959Z,58.53
2023-05-01T05:48:53.369Z,57.94
2023-05-01T05:51:22.009Z,57.75
2023-05-01T05:53:50.459Z,57.70
2023-05-01T05:56:18.885Z,57.04
2023-05-01T05:58:47.411Z,55.60
2023-05-01T06:01:16.495Z,55.41
2023-05-01T06:03:45.093Z,54.64
2023-05-01T06:06:13.738Z,54.14
2023-05-01T06:08:42.264Z,53.59
2023-05-01T06:11:14.187Z,53.50
2023-05-01T06:13:42.570Z,54.23
2023-05-01T06:16:11.214Z,53.71
2023-05-01T06:18:39.706Z,53.63
2023-05-01T06:21:08.197Z,53.55
2023-05-01T06:23:37.283Z,52.90
2023-05-01T06:26:24.091Z,52.16
2023-05-01T06:28:52.611Z,51.64
2023-05-01T06:31:21.445Z,51.99
2023-05-01T06:33:53.338Z,51.62
2023-05-01T06:36:28.202Z,50.72
2023-05-01T06:38:57.894Z,50.99
2023-05-01T06:41:27.082Z,50.84
2023-05-01T06:43:56.074Z,50.35
2023-05-01T06:46:24.572Z,49.00
2023-05-01T06:48:53.018Z,48.49
2023-05-01T06:51:21.392Z,48.34
2023-05-01T06:53:49.810Z,48.62
2023-05-01T06:56:18.557Z,48.06
2023-05-01T06:58:47.001Z,47.83
2023-05-01T07:01:15.389Z,46.53
2023-05-01T07:03:44.072Z,46.77
2023-05-01T07:06:12.491Z,44.00
2023-05-01T07:08:40.876Z,43.62
2023-05-01T07:11:09.380Z,43.68
2023-05-01T07:13:38.034Z,43.47
2023-05-01T07:16:07.373Z,44.11
2023-05-01T07:18:35.849Z,44.00
2023-05-01T07:21:04.288Z,43.63
2023-05-01T07:23:32.649Z,43.76
2023-05-01T07:26:01.283Z,43.02
2023-05-01T07:28:29.853Z,42.33
2023-05-01T07:30:58.182Z,42.22
2023-05-01T07:33:26.790Z,42.63
2023-05-01T07:35:55.517Z,43.04
2023-05-01T07:38:23.871Z,43.33
2023-05-01T07:40:55.322Z,43.43
2023-05-01T07:43:23.997Z,42.20
2023-05-01T07:46:00.992Z,41.67
2023-05-01T07:48:29.959Z,42.46
2023-05-01T07:51:04.129Z,42.99
2023-05-01T07:53:33.303Z,41.84
2023-05-01T07:56:09.194Z,40.42
2023-05-01T07:58:37.855Z,40.69
2023-05-01T08:01:06.321Z,39.94
2023-05-01T08:03:35.046Z,39.73
2023-05-01T08:06:03.642Z,39.74
2023-05-01T08:08:32.100Z,39.87
2023-05-01T08:11:01.257Z,40.23
2023-05-01T08:13:29.774Z,39.81
2023-05-01T08:16:05.116Z,38.98
2023-05-01T08:18:33.396Z,38.65
2023-05-01T08:21:01.807Z,38.52
2023-05-01T08:23:30.208Z,38.79
2023-05-01T08:25:59.048Z,38.92
2023-05-01T08:28:27.466Z,39.21
2023-05-01T08:30:55.880Z,39.79
2023-05-01T08:33:24.624Z,39.14
2023-05-01T08:35:53.200Z,39.28
2023-05-01T08:38:21.723Z,39.09
2023-05-01T08:40:54.000Z,38.64
2023-05-01T08:43:23.292Z,38.19
2023-05-01T08:45:54.928Z,38.49
2023-05-01T08:48:25.714Z,37.91
2023-05-01T08:50:55.796Z,37.65
2023-05-01T08:53:25.734Z,38.48
2023-05-01T08:55:59.233Z,37.19
2023-05-01T08:58:29.176Z,35.41
2023-05-01T09:00:58.596Z,35.69
2023-05-01T09:03:28.584Z,36.10
2023-05-01T09:05:57.615Z,35.33
2023-05-01T09:08:26.197Z,35.57
2023-05-01T09:10:56.472Z,35.09
2023-05-01T09:13:25.778Z,35.17
2023-05-01T09:15:54.335Z,35.27
2023-05-01T09:18:23.949Z,36.06
2023-05-01T09:20:52.438Z,35.98
2023-05-01T09:23:20.759Z,36.52
2023-05-01T09:25:51.900Z,35.61
2023-05-01T09:28:40.039Z,35.57
2023-05-01T09:31:21.794Z,35.50
2023-05-01T09:33:58.226Z,35.33
2023-05-01T09:36:42.109Z,35.73
2023-05-01T09:39:22.744Z,34.98
2023-05-01T09:41:52.739Z,34.80
2023-05-01T09:44:21.258Z,35.61
2023-05-01T09:46:51.304Z,35.30
2023-05-01T09:49:19.785Z,35.44
2023-05-01T09:51:49.312Z,35.95
2023-05-01T09:54:21.122Z,35.57
2023-05-01T09:56:49.982Z,34.29
2023-05-01T09:59:20.418Z,34.49
2023-05-01T10:01:50.844Z,33.88
2023-05-01T10:04:30.339Z,34.70
2023-05-01T10:07:00.971Z,35.04
2023-05-01T10:09:30.078Z,35.73
2023-05-01T10:11:59.379Z,36.58
2023-05-01T10:14:29.876Z,34.59
2023-05-01T10:16:58.489Z,34.60
2023-05-01T10:19:26.903Z,34.16
2023-05-01T10:21:55.333Z,33.23
2023-05-01T10:24:23.904Z,34.06
2023-05-01T10:26:53.888Z,33.77
2023-05-01T10:29:23.752Z,34.54
2023-05-01T10:31:52.220Z,33.82
2023-05-01T10:34:22.367Z,34.46
2023-05-01T10:36:57.996Z,34.66
2023-05-01T10:39:34.107Z,34.35
2023-05-01T10:42:16.885Z,34.25
2023-05-01T10:44:48.164Z,34.62
2023-05-01T10:47:28.034Z,34.49
2023-05-01T10:50:05.470Z,33.45
2023-05-01T10:53:14.683Z,33.41
2023-05-01T10:55:45.429Z,34.32
2023-05-01T10:58:15.257Z,34.24
2023-05-01T11:00:43.604Z,34.36
2023-05-01T11:03:24.843Z,34.05
2023-05-01T11:06:04.939Z,33.75
2023-05-01T11:08:35.502Z,33.26
2023-05-01T11:11:22.130Z,32.54
2023-05-01T11:14:03.506Z,32.23
2023-05-01T11:16:42.004Z,32.58
2023-05-01T11:19:12.211Z,33.10
2023-05-01T11:21:42.216Z,32.24
2023-05-01T11:24:10.729Z,31.36
2023-05-01T11:26:40.119Z,31.67
2023-05-01T11:29:10.872Z,30.67
2023-05-01T11:31:39.705Z,31.20
2023-05-01T11:34:08.520Z,30.51
2023-05-01T11:36:50.338Z,30.15
2023-05-01T11:39:19.861Z,30.13
2023-05-01T11:41:48.457Z,29.69
2023-05-01T11:44:18.253Z,29.96
2023-05-01T11:46:57.138Z,29.80
2023-05-01T11:49:28.908Z,29.16
2023-05-01T11:52:00.155Z,28.44
2023-05-01T11:54:28.530Z,28.02
2023-05-01T11:57:01.238Z,28.00
2023-05-01T11:59:30.777Z,27.48
2023-05-01T12:01:59.145Z,27.56
2023-05-01T12:04:31.715Z,27.87
2023-05-01T12:07:00.923Z,26.92
2023-05-01T12:09:29.538Z,26.87
2023-05-01T12:11:59.869Z,27.07
2023-05-01T12:14:28.361Z,27.13
2023-05-01T12:16:57.281Z,27.03
2023-05-01T12:19:26.177Z,26.42
2023-05-01T12:22:07.401Z,26.25
2023-05-01T12:24:37.962Z,25.84
2023-05-01T12:27:09.455Z,25.74
2023-05-01T12:29:41.864Z,26.44
2023-05-01T12:32:11.430Z,26.35
2023-05-01T12:34:40.569Z,26.06
2023-05-01T12:37:10.135Z,26.22
2023-05-01T12:39:42.764Z,25.61
2023-05-01T12:42:18.275Z,24.70
2023-05-01T12:44:46.816Z,24.52
2023-05-01T12:47:15.238Z,24.56
2023-05-01T12:49:43.861Z,23.87
2023-05-01T12:52:12.431Z,24.50
2023-05-01T12:54:43.701Z,23.76
2023-05-01T12:57:14.860Z,23.52
2023-05-01T12:59:44.700Z,24.32
2023-05-01T13:02:17.487Z,24.81
2023-05-01T13:04:47.304Z,24.28
2023-05-01T13:07:17.675Z,24.45
2023-05-01T13:09:56.990Z,24.04
2023-05-01T13:12:26.938Z,23.33
2023-05-01T13:14:56.017Z,23.58
2023-05-01T13:17:28.516Z,22.84
2023-05-01T13:19:59.962Z,22.81
2023-05-01T13:22:33.129Z,22.93
2023-05-01T13:25:04.049Z,22.25
2023-05-01T13:27:32.806Z,21.73
2023-05-01T13:30:02.248Z,21.80
2023-05-01T13:32:32.007Z,22.39
2023-05-01T13:35:01.612Z,22.63
2023-05-01T13:37:30.085Z,21.84
2023-05-01T13:39:59.010Z,21.68
2023-05-01T13:42:27.705Z,21.60
2023-05-01T13:44:57.041Z,21.16
2023-05-01T13:47:27.099Z,21.34
2023-05-01T13:49:56.007Z,21.32
2023-05-01T13:52:25.189Z,21.31
2023-05-01T13:54:56.075Z,21.38
2023-05-01T13:57:25.275Z,21.06
2023-05-01T13:59:53.839Z,20.89
2023-05-01T14:02:30.129Z,20.74
2023-05-01T14:05:00.779Z,20.53
2023-05-01T14:07:29.602Z,19.97
2023-05-01T14:10:00.171Z,20.10
2023-05-01T14:12:30.744Z,20.47
2023-05-01T14:15:03.530Z,20.41
2023-05-01T14:17:34.863Z,20.73
2023-05-01T14:20:05.131Z,20.53
2023-05-01T14:22:45.769Z,21.11
2023-05-01T14:25:31.517Z,20.50
2023-05-01T14:28:01.278Z,21.68
2023-05-01T14:30:34.080Z,21.75
2023-05-01T14:33:03.819Z,21.53
2023-05-01T14:35:32.287Z,21.61
2023-05-01T14:38:07.759Z,21.66
2023-05-01T14:40:36.203Z,22.01
2023-05-01T14:43:04.729Z,22.16
2023-05-01T14:45:33.198Z,21.84
2023-05-01T14:48:11.377Z,22.11
2023-05-01T14:50:40.098Z,22.09
2023-05-01T14:53:08.626Z,22.44
2023-05-01T14:55:37.024Z,23.52
2023-05-01T14:58:05.505Z,24.72
2023-05-01T15:00:34.048Z,25.22
2023-05-01T15:03:02.639Z,25.84
2023-05-01T15:05:31.191Z,25.83
2023-05-01T15:08:04.011Z,25.47
2023-05-01T15:10:32.646Z,25.93
2023-05-01T15:13:00.964Z,26.38
2023-05-01T15:15:30.019Z,26.19
2023-05-01T15:17:58.408Z,26.23
2023-05-01T15:20:26.889Z,26.99
2023-05-01T15:22:55.304Z,26.90
2023-05-01T15:25:23.784Z,27.08
2023-05-01T15:27:52.436Z,27.40
2023-05-01T15:30:20.750Z,27.67
2023-05-01T15:32:49.315Z,28.13
2023-05-01T15:35:18.410Z,27.94
2023-05-01T15:37:46.792Z,27.53
2023-05-01T15:40:15.193Z,27.77
2023-05-01T15:42:43.681Z,27.50
2023-05-01T15:45:12.218Z,27.99
2023-05-01T15:47:40.778Z,27.89
2023-05-01T15:50:13.590Z,27.61
2023-05-01T15:52:41.951Z,27.25
2023-05-01T15:55:10.320Z,27.02
2023-05-01T15:57:38.748Z,26.89
2023-05-01T16:00:09.220Z,27.13
2023-05-01T16:02:37.659Z,26.80
2023-05-01T16:05:06.745Z,27.29
2023-05-01T16:07:35.282Z,27.24
2023-05-01T16:10:04.514Z,27.21
2023-05-01T16:12:33.247Z,27.88
2023-05-01T16:15:05.387Z,27.81
2023-05-01T16:17:39.543Z,27.50
2023-05-01T16:20:14.710Z,27.83
2023-05-01T16:22:43.651Z,27.47
2023-05-01T16:25:12.922Z,27.14
2023-05-01T16:27:44.566Z,27.08
2023-05-01T16:30:17.014Z,26.76
2023-05-01T16:32:46.486Z,26.63
2023-05-01T16:35:20.259Z,27.27
2023-05-01T16:37:48.655Z,27.48
2023-05-01T16:40:18.306Z,27.85
2023-05-01T16:42:53.676Z,28.02
2023-05-01T16:45:22.309Z,28.17
2023-05-01T16:47:51.693Z,28.59
2023-05-01T16:50:22.688Z,28.97
2023-05-01T16:52:52.144Z,28.84
2023-05-01T16:55:20.639Z,29.57
2023-05-01T16:57:49.325Z,29.70
2023-05-01T17:00:18.593Z,29.71
2023-05-01T17:02:50.017Z,30.10
2023-05-01T17:05:18.585Z,30.21
2023-05-01T17:07:47.009Z,30.52
2023-05-01T17:10:15.456Z,30.73
2023-05-01T17:12:44.736Z,30.24
2023-05-01T17:15:13.132Z,30.96
2023-05-01T17:17:41.589Z,30.99
2023-05-01T17:20:11.092Z,31.13
2023-05-01T17:22:39.546Z,30.94
2023-05-01T17:25:08.427Z,30.91
2023-05-01T17:27:37.940Z,31.36
2023-05-01T17:30:07.591Z,31.56
2023-05-01T17:32:37.601Z,31.39
2023-05-01T17:35:06.535Z,31.65
2023-05-01T17:37:34.990Z,31.62
2023-05-01T17:40:05.284Z,31.76
2023-05-01T17:42:33.799Z,31.67
2023-05-01T17:45:02.278Z,31.84
2023-05-01T17:47:30.855Z,32.19
2023-05-01T17:50:01.262Z,32.36
2023-05-01T17:52:30.138Z,32.12
2023-05-01T17:54:58.626Z,32.79
2023-05-01T17:57:28.040Z,32.97
2023-05-01T17:59:57.274Z,33.05
2023-05-01T18:02:26.674Z,32.98
2023-05-01T18:04:55.519Z,32.93
2023-05-01T18:07:23.997Z,33.11
2023-05-01T18:09:52.345Z,33.47
2023-05-01T18:12:20.997Z,33.44
2023-05-01T18:14:49.495Z,33.55
2023-05-01T18:17:18.522Z,33.35
2023-05-01T18:19:46.899Z,33.25
2023-05-01T18:22:15.352Z,33.25
2023-05-01T18:24:43.920Z,32.98
2023-05-01T18:27:12.667Z,32.98
2023-05-01T18:29:40.979Z,32.98
2023-05-01T18:32:12.779Z,33.12
2023-05-01T18:34:42.515Z,33.24
2023-05-01T18:37:11.064Z,33.21
2023-05-01T18:39:39.435Z,33.02
2023-05-01T18:42:08.904Z,33.11
2023-05-01T18:44:37.230Z,33.07
2023-05-01T18:47:05.794Z,33.11
2023-05-01T18:49:34.864Z,33.43
2023-05-01T18:52:03.665Z,33.24
2023-05-01T18:54:32.385Z,33.06
2023-05-01T18:57:00.823Z,33.19
2023-05-01T18:59:31.253Z,33.05
2023-05-01T19:01:59.722Z,33.20
2023-05-01T19:04:28.130Z,33.40
2023-05-01T19:06:56.907Z,33.37
2023-05-01T19:09:25.434Z,33.23
2023-05-01T19:11:53.855Z,33.26
2023-05-01T19:14:22.324Z,33.45
2023-05-01T19:16:50.823Z,33.59
2023-05-01T19:19:19.262Z,33.55
2023-05-01T19:21:47.643Z,33.81
2023-05-01T19:24:16.004Z,34.11
2023-05-01T19:26:44.745Z,34.30
2023-05-01T19:29:13.177Z,34.03
2023-05-01T19:31:41.881Z,34.31
2023-05-01T19:34:10.277Z,34.10
2023-05-01T19:36:38.685Z,34.49
2023-05-01T19:39:07.337Z,34.87
2023-05-01T19:41:35.668Z,35.28
2023-05-01T19:44:04.151Z,35.05
2023-05-01T19:46:32.583Z,35.08
2023-05-01T19:49:01.079Z,35.74
2023-05-01T19:51:29.505Z,35.74
2023-05-01T19:53:57.819Z,35.71
2023-05-01T19:56:26.339Z,35.58
2023-05-01T19:58:55.292Z,35.65
2023-05-01T20:01:23.887Z,36.11
2023-05-01T20:03:52.433Z,36.35
2023-05-01T20:06:20.995Z,36.97
2023-05-01T20:08:49.523Z,37.42
2023-05-01T20:11:18.051Z,38.94
2023-05-01T20:13:46.492Z,39.74
2023-05-01T20:16:14.973Z,40.75
2023-05-01T20:18:43.322Z,41.31
2023-05-01T20:21:11.877Z,41.68
2023-05-01T20:23:40.529Z,42.29
2023-05-01T20:26:08.882Z,42.64
2023-05-01T20:28:37.348Z,43.23
2023-05-01T20:31:06.386Z,43.79
2023-05-01T20:33:34.734Z,43.72
2023-05-01T20:36:04.109Z,43.83
2023-05-01T20:38:32.609Z,44.02
2023-05-01T20:41:01.089Z,43.84
2023-05-01T20:43:29.506Z,43.39
2023-05-01T20:45:57.956Z,43.28
2023-05-01T20:48:27.079Z,43.19
2023-05-01T20:50:55.506Z,42.73
2023-05-01T20:53:24.058Z,42.58
2023-05-01T20:55:52.465Z,42.75
2023-05-01T20:58:20.993Z,43.43
2023-05-01T21:00:49.401Z,43.69
2023-05-01T21:03:17.828Z,43.53
2023-05-01T21:05:46.502Z,43.91
2023-05-01T21:08:15.422Z,44.18
2023-05-01T21:10:43.821Z,44.26
2023-05-01T21:13:12.350Z,44.77
2023-05-01T21:15:43.600Z,44.98
2023-05-01T21:18:14.857Z,44.97
2023-05-01T21:20:45.623Z,44.82
2023-05-01T21:23:15.574Z,44.67
2023-05-01T21:25:44.406Z,44.75
2023-05-01T21:28:15.877Z,44.53
2023-05-01T21:30:44.354Z,44.09
2023-05-01T21:33:13.858Z,43.71
2023-05-01T21:35:44.364Z,43.30
2023-05-01T21:38:12.802Z,43.40
2023-05-01T21:40:42.296Z,43.07
2023-05-01T21:43:10.931Z,43.31
2023-05-01T21:45:43.428Z,43.50
2023-05-01T21:48:15.352Z,43.55
2023-05-01T21:50:43.778Z,44.14
2023-05-01T21:53:12.132Z,44.49
2023-05-01T21:55:40.657Z,44.49
2023-05-01T21:58:08.961Z,44.55
2023-05-01T22:00:38.792Z,44.52
2023-05-01T22:03:08.797Z,44.07
2023-05-01T22:05:41.155Z,44.58
2023-05-01T22:08:09.569Z,44.66
2023-05-01T22:10:38.205Z,44.42
2023-05-01T22:13:06.677Z,44.05
2023-05-01T22:15:35.078Z,43.75
2023-05-01T22:18:03.733Z,43.72
2023-05-01T22:20:32.703Z,43.54
2023-05-01T22:23:01.218Z,43.65
2023-05-01T22:25:29.709Z,43.59
2023-05-01T22:28:00.697Z,43.55
2023-05-01T22:30:29.343Z,43.81
2023-05-01T22:32:57.753Z,43.70
2023-05-01T22:35:26.489Z,43.39
2023-05-01T22:37:55.138Z,43.18
2023-05-01T22:40:23.463Z,43.29
2023-05-01T22:42:51.826Z,43.06
2023-05-01T22:45:21.117Z,43.62
2023-05-01T22:47:49.595Z,43.39
2023-05-01T22:50:18.618Z,43.68
2023-05-01T22:52:47.036Z,44.50
2023-05-01T22:55:16.127Z,44.91
2023-05-01T22:57:44.830Z,45.30
2023-05-01T23:00:13.970Z,45.83
2023-05-01T23:02:42.419Z,46.04
2023-05-01T23:05:11.637Z,45.97
2023-05-01T23:07:40.100Z,45.45
2023-05-01T23:10:08.992Z,45.27
2023-05-01T23:12:42.340Z,45.23
2023-05-01T23:15:17.146Z,45.13
2023-05-01T23:17:46.375Z,45.32
2023-05-01T23:20:21.445Z,45.61
2023-05-01T23:22:50.858Z,45.77
2023-05-01T23:25:25.907Z,45.82
2023-05-01T23:27:56.892Z,45.92
2023-05-01T23:30:25.343Z,45.12
2023-05-01T23:32:56.654Z,44.82
2023-05-01T23:35:25.222Z,44.52
2023-05-01T23:37:54.087Z,44.90
2023-05-01T23:40:22.899Z,44.71
2023-05-01T23:42:51.468Z,44.36
2023-05-01T23:45:19.991Z,43.85
2023-05-01T23:47:48.459Z,43.65
2023-05-01T23:50:16.931Z,43.01
2023-05-01T23:52:45.402Z,42.61
2023-05-01T23:55:13.884Z,42.53
2023-05-01T23:57:42.423Z,42.62
